Woodville, Louisiana
Current Conditions -  °F | °C
As of 6:55 AM on Saturday 20 Dec 2014 (Local Time) from KRSN Reporting Station
Haze Haze  
Wind Chill: 36°   Ceiling: 100
Heat Index: 40°   Visibility: 0.75mi
Dew Point: 40°   Wind: 7mph
Humidity: 100%   Direction: 360°N
Pressure: 30.27"   Gusts: NA
Location:  32.5075°N, 92.6828°W
Report Text: KRSN 201255Z AUTO 36006KT 3/4SM BR OVC001 05/05 A3027 RMK AO2 T00460046
Loading
Personal Weather Stations






























Interactive Weather Map New forecast layout! Learn more

10-Day Weather Forecast

Advertisements
Track Severe Weather on mobile